Time;durP1;ratioP1;P1;durP2;ratioP2;P2;SDS_P1;SDS_P2;PMS_P1;PMS_P2;Temp;Humidity;BMP_temperature;BMP_pressure;BME280_temperature;BME280_humidity;BME280_pressure;Samples;Min_cycle;Max_cycle;Signal;HPM_P1;HPM_P2
2022/04/12 09:47:14;;;;;;;27.77;14.57;;;19.40;57.80;;;;;;5132745;27;20546;-50
2022/04/12 09:49:48;;;;;;;33.13;12.80;;;19.50;57.70;;;;;;5131052;28;20180;-50
2022/04/12 09:52:14;;;;;;;28.38;12.65;;;19.80;57.60;;;;;;5131868;27;20234;-50
2022/04/12 09:54:39;;;;;;;25.15;11.38;;;19.90;57.00;;;;;;5132559;27;20218;-47
2022/04/12 09:57:07;;;;;;;22.65;11.13;;;19.90;57.00;;;;;;5130321;28;20294;-48
2022/04/12 09:59:34;;;;;;;23.52;10.52;;;19.80;57.10;;;;;;5131678;27;20175;-49
2022/04/12 10:02:11;;;;;;;22.25;10.45;;;19.80;57.30;;;;;;5131612;27;20183;-45
2022/04/12 10:04:38;;;;;;;20.27;10.23;;;19.80;57.50;;;;;;5131377;28;20262;-47
2022/04/12 10:07:05;;;;;;;16.25;9.18;;;19.70;57.60;;;;;;5130879;28;20225;-48
2022/04/12 10:09:35;;;;;;;17.95;9.32;;;19.70;57.70;;;;;;5131121;27;20168;-46
2022/04/12 10:12:15;;;;;;;15.75;8.48;;;19.70;57.80;;;;;;5131757;27;20209;-47
2022/04/12 10:14:41;;;;;;;16.77;7.93;;;19.70;57.90;;;;;;5131390;27;20610;-47
2022/04/12 10:17:07;;;;;;;14.85;8.57;;;19.70;58.00;;;;;;5130064;27;20312;-46
2022/04/12 10:19:34;;;;;;;14.90;7.57;;;19.70;58.10;;;;;;5130008;27;20215;-48
2022/04/12 10:22:13;;;;;;;14.63;7.07;;;19.70;58.20;;;;;;5130303;28;20179;-43
2022/04/12 10:24:39;;;;;;;14.18;8.02;;;19.70;58.10;;;;;;5129897;27;20308;-44
2022/04/12 10:27:06;;;;;;;13.77;6.88;;;19.70;58.10;;;;;;5130055;27;20302;-49
2022/04/12 10:29:32;;;;;;;13.57;6.50;;;19.70;58.10;;;;;;5129850;27;20176;-44
2022/04/12 10:32:12;;;;;;;11.50;6.55;;;19.60;58.20;;;;;;5131025;27;20278;-48
2022/04/12 10:34:58;;;;;;;11.30;5.80;;;19.70;58.20;;;;;;5130436;27;20254;-49
2022/04/12 10:37:24;;;;;;;14.13;6.10;;;19.70;58.30;;;;;;5129961;27;20244;-49
2022/04/12 10:39:56;;;;;;;9.48;6.07;;;19.70;58.40;;;;;;5129590;27;20207;-52
2022/04/12 10:42:38;;;;;;;8.48;5.53;;;19.70;58.40;;;;;;5129960;27;20213;-45
2022/04/12 10:45:04;;;;;;;10.90;5.30;;;19.70;58.50;;;;;;5129372;28;20211;-48
2022/04/12 10:47:37;;;;;;;13.77;5.68;;;19.70;58.60;;;;;;5129867;27;20192;-48
2022/04/12 10:50:10;;;;;;;8.93;5.13;;;19.70;58.70;;;;;;5129431;27;20263;-52
2022/04/12 10:52:41;;;;;;;8.38;4.90;;;19.70;58.70;;;;;;5129553;27;20175;-52
2022/04/12 10:55:28;;;;;;;9.25;5.15;;;19.70;58.70;;;;;;5130166;28;20180;-47
2022/04/12 10:58:12;;;;;;;9.02;4.43;;;19.70;58.80;;;;;;5119271;27;20230;-48
2022/04/12 11:00:49;;;;;;;9.98;5.22;;;19.70;58.90;;;;;;5115923;28;20175;-50
2022/04/12 11:03:16;;;;;;;7.72;4.43;;;19.70;58.90;;;;;;5115567;28;20548;-50
2022/04/12 11:05:42;;;;;;;8.00;4.90;;;19.80;59.00;;;;;;5116271;28;20200;-46
2022/04/12 11:08:27;;;;;;;8.25;4.53;;;19.70;58.80;;;;;;5116823;28;20670;-50
2022/04/12 11:10:54;;;;;;;7.07;4.25;;;19.70;58.70;;;;;;5115126;28;20199;-48
2022/04/12 11:13:55;;;;;;;6.72;3.67;;;19.70;58.90;;;;;;5115687;28;20541;-50
2022/04/12 11:16:26;;;;;;;6.72;3.90;;;19.70;58.60;;;;;;5116086;28;20179;-49
2022/04/12 11:18:55;;;;;;;5.95;4.13;;;19.70;58.60;;;;;;5115294;28;20203;-50
2022/04/12 11:21:26;;;;;;;6.18;3.80;;;19.70;58.60;;;;;;5115492;28;20183;-52
2022/04/12 11:27:52;;;;;;;7.00;3.47;;;19.70;58.50;;;;;;5116547;28;20700;-46
2022/04/12 11:30:18;;;;;;;5.82;3.55;;;19.70;58.50;;;;;;5115000;28;20172;-52
2022/04/12 11:32:43;;;;;;;5.25;3.47;;;19.70;58.50;;;;;;5114958;28;20176;-46
2022/04/12 11:35:09;;;;;;;5.75;3.20;;;19.70;58.50;;;;;;5115298;28;20177;-46
2022/04/12 11:38:08;;;;;;;5.05;3.40;;;19.70;58.50;;;;;;5114759;28;20228;-45
2022/04/12 11:40:59;;;;;;;5.22;3.50;;;19.70;58.50;;;;;;5115683;28;20191;-49
2022/04/12 11:43:26;;;;;;;5.32;3.15;;;19.70;58.40;;;;;;5115320;28;20199;-51
2022/04/12 11:45:58;;;;;;;4.40;3.00;;;19.60;58.40;;;;;;5116192;28;20200;-48
2022/04/12 11:48:28;;;;;;;4.53;2.83;;;19.70;58.50;;;;;;5115834;27;20211;-46
2022/04/12 11:50:55;;;;;;;4.65;2.95;;;19.70;58.50;;;;;;5114474;28;20184;-47
2022/04/12 11:53:22;;;;;;;4.97;3.10;;;19.60;58.40;;;;;;5114560;28;20177;-49
2022/04/12 11:56:26;;;;;;;5.32;3.13;;;19.60;58.40;;;;;;5115615;28;20176;-45
2022/04/12 11:58:51;;;;;;;5.13;3.20;;;19.70;58.40;;;;;;5115763;28;20217;-51
2022/04/12 12:01:37;;;;;;;4.85;2.90;;;19.70;58.40;;;;;;5114516;28;20172;-48
2022/04/12 12:04:07;;;;;;;5.80;3.30;;;19.60;58.40;;;;;;5114585;28;20190;-48
2022/04/12 12:06:33;;;;;;;3.75;2.80;;;19.60;58.40;;;;;;5114288;28;20598;-45
2022/04/12 12:08:59;;;;;;;3.95;2.53;;;19.70;58.50;;;;;;5113171;28;20209;-46
2022/04/12 12:11:28;;;;;;;4.00;2.90;;;19.70;58.50;;;;;;5115380;28;20191;-45
2022/04/12 12:13:57;;;;;;;3.67;2.80;;;19.70;58.60;;;;;;5115186;28;20210;-48
2022/04/12 12:16:23;;;;;;;3.78;2.40;;;19.70;58.80;;;;;;5114012;28;20207;-50
2022/04/12 12:18:50;;;;;;;4.53;2.17;;;19.70;58.90;;;;;;5115180;28;20596;-51
2022/04/12 12:21:19;;;;;;;3.65;2.50;;;19.70;59.00;;;;;;5114655;28;20645;-45
2022/04/12 12:24:17;;;;;;;4.22;2.50;;;19.70;59.10;;;;;;5113973;28;20183;-48
2022/04/12 12:26:43;;;;;;;4.03;2.53;;;19.70;59.20;;;;;;5114927;28;20200;-48
2022/04/12 12:29:11;;;;;;;4.03;2.40;;;19.80;59.40;;;;;;5113969;28;20263;-50
2022/04/12 12:31:45;;;;;;;4.13;2.20;;;19.80;59.40;;;;;;5115022;28;20177;-48
2022/04/12 12:34:43;;;;;;;7.65;2.80;;;19.80;59.40;;;;;;5113716;28;20168;-51
2022/04/12 12:37:08;;;;;;;4.63;2.40;;;19.80;59.50;;;;;;5114654;28;20658;-49
2022/04/12 12:39:40;;;;;;;4.45;2.40;;;19.80;59.60;;;;;;5113591;28;20268;-51
2022/04/12 12:42:07;;;;;;;2.95;2.33;;;19.80;59.60;;;;;;5114137;28;20222;-48
2022/04/12 16:42:28;;;;;;;110.13;74.45;;;20.50;55.70;;;;;;5086382;22;20656;-69
2022/04/12 16:44:54;;;;;;;40.67;34.20;;;20.20;38.70;;;;;;5082037;28;20210;-72
2022/04/12 16:47:19;;;;;;;80.53;65.45;;;19.60;38.80;;;;;;5049628;28;20175;-72
2022/04/12 16:49:45;;;;;;;42.33;37.88;;;19.00;40.10;;;;;;5057920;28;20193;-71
2022/04/12 16:52:11;;;;;;;38.22;27.23;;;18.50;40.60;;;;;;5050782;28;20155;-71
2022/04/12 16:54:55;;;;;;;5.43;4.93;;;18.10;41.80;;;;;;5050037;28;20183;-70
2022/04/12 16:57:21;;;;;;;7.57;6.78;;;17.60;41.70;;;;;;5050081;28;20660;-70
2022/04/12 17:00:16;;;;;;;4.07;2.45;;;17.40;42.70;;;;;;5050034;28;20174;-72
2022/04/12 17:02:41;;;;;;;4.13;3.10;;;17.20;43.20;;;;;;5050188;28;20174;-71
2022/04/12 17:05:09;;;;;;;5.07;2.03;;;17.00;44.20;;;;;;5049936;28;20202;-71
2022/04/12 17:07:34;;;;;;;4.45;1.70;;;16.90;43.90;;;;;;5049276;28;20212;-71
2022/04/12 17:10:00;;;;;;;2.58;1.73;;;16.80;44.40;;;;;;5049181;28;20647;-72
2022/04/12 17:12:25;;;;;;;4.82;2.00;;;16.70;44.30;;;;;;5049983;28;20613;-72
2022/04/12 17:14:51;;;;;;;5.53;1.90;;;16.60;44.80;;;;;;5049040;28;20304;-72
2022/04/12 17:17:39;;;;;;;2.25;1.90;;;16.60;44.60;;;;;;5048936;28;20269;-71
2022/04/12 17:20:40;;;;;;;3.78;1.88;;;16.50;44.70;;;;;;5050150;28;20205;-71
2022/04/12 17:23:06;;;;;;;2.72;1.52;;;16.40;45.20;;;;;;5050081;28;20166;-71
2022/04/12 17:26:10;;;;;;;3.35;1.52;;;16.30;45.30;;;;;;5048577;28;20341;-71
2022/04/12 17:28:35;;;;;;;1.95;1.60;;;16.20;45.10;;;;;;5048783;28;20166;-71
2022/04/12 17:31:04;;;;;;;1.80;1.70;;;16.20;45.10;;;;;;5048862;28;20652;-71
2022/04/12 17:33:30;;;;;;;2.25;2.05;;;16.10;45.30;;;;;;5048701;28;20175;-71
2022/04/12 17:35:55;;;;;;;2.78;1.83;;;16.20;45.00;;;;;;5048764;28;20202;-71
2022/04/12 17:38:21;;;;;;;2.70;1.50;;;16.10;45.30;;;;;;5048505;28;20178;-71
2022/04/12 17:41:03;;;;;;;2.50;1.90;;;16.00;45.10;;;;;;5048397;28;20225;-71
2022/04/12 17:43:28;;;;;;;4.47;3.70;;;15.90;45.50;;;;;;5049830;28;20201;-71
2022/04/12 17:45:54;;;;;;;3.30;2.38;;;15.80;45.60;;;;;;5049445;28;20206;-71
2022/04/12 17:48:20;;;;;;;4.25;3.55;;;15.70;45.40;;;;;;5048333;28;20178;-71
2022/04/12 17:50:45;;;;;;;6.10;2.47;;;15.70;45.50;;;;;;5048153;28;20186;-71
2022/04/12 17:53:11;;;;;;;3.90;2.75;;;15.60;45.80;;;;;;5039744;28;20211;-71
2022/04/12 17:55:37;;;;;;;2.30;2.10;;;15.70;45.30;;;;;;5033722;28;20234;-71
2022/04/12 17:58:04;;;;;;;12.82;6.90;;;15.60;45.10;;;;;;5033138;28;20171;-72
2022/04/12 18:00:30;;;;;;;6.22;3.60;;;15.50;45.40;;;;;;5034551;28;20700;-71
2022/04/12 18:02:55;;;;;;;5.70;3.80;;;15.50;45.10;;;;;;5033881;28;20167;-71
2022/04/12 18:05:21;;;;;;;4.80;3.53;;;15.50;45.20;;;;;;5034148;28;20205;-71
2022/04/12 18:07:47;;;;;;;5.70;5.20;;;15.40;45.10;;;;;;5034240;28;20241;-71
2022/04/12 18:10:12;;;;;;;4.03;3.00;;;15.30;45.60;;;;;;5034109;28;20202;-71
2022/04/12 18:12:39;;;;;;;6.55;5.97;;;15.30;44.90;;;;;;5034668;28;20175;-71
2022/04/12 18:15:06;;;;;;;5.55;3.80;;;15.20;45.90;;;;;;5036126;28;20284;-72
2022/04/12 18:17:31;;;;;;;4.10;3.65;;;15.10;45.80;;;;;;5034680;28;20211;-72
2022/04/12 18:19:57;;;;;;;5.10;3.75;;;15.00;45.80;;;;;;5035532;28;20174;-72
2022/04/12 18:22:23;;;;;;;6.38;4.35;;;14.90;46.20;;;;;;5034495;28;20207;-72
2022/04/12 18:24:48;;;;;;;5.00;3.00;;;14.80;46.70;;;;;;5035181;28;20281;-72
2022/04/12 18:27:15;;;;;;;9.18;5.70;;;14.80;46.50;;;;;;5034708;28;20175;-72
2022/04/12 18:29:41;;;;;;;6.75;4.20;;;14.70;46.40;;;;;;5035929;28;20225;-72
2022/04/12 18:32:07;;;;;;;5.15;3.78;;;14.60;47.60;;;;;;5035141;28;20174;-72
2022/04/12 18:34:33;;;;;;;6.78;4.20;;;14.60;47.50;;;;;;5034438;28;20227;-72
2022/04/12 18:36:59;;;;;;;10.68;5.50;;;14.50;47.00;;;;;;5034585;28;20178;-71
2022/04/12 18:39:25;;;;;;;14.30;6.95;;;14.50;47.10;;;;;;5034540;28;20178;-71
2022/04/12 18:41:51;;;;;;;8.73;4.47;;;14.40;47.30;;;;;;5034778;28;20520;-72
2022/04/12 18:44:16;;;;;;;10.13;4.70;;;14.40;46.30;;;;;;5034486;28;20695;-71
2022/04/12 18:46:42;;;;;;;14.48;11.52;;;14.40;46.60;;;;;;5033942;28;20198;-72
2022/04/12 18:49:07;;;;;;;14.43;10.63;;;14.40;46.90;;;;;;5034345;28;20289;-71
2022/04/12 18:51:33;;;;;;;31.52;22.80;;;14.30;47.20;;;;;;5034794;28;20194;-70
2022/04/12 18:53:59;;;;;;;25.55;21.35;;;14.30;47.20;;;;;;5033931;28;20175;-70
2022/04/12 18:56:25;;;;;;;12.82;10.27;;;14.40;47.40;;;;;;5034138;28;20201;-70
2022/04/12 18:58:51;;;;;;;9.00;4.53;;;14.30;49.60;;;;;;5034251;28;20286;-72
2022/04/12 19:01:17;;;;;;;7.13;3.67;;;14.10;51.40;;;;;;5034993;28;20705;-72
2022/04/12 19:03:43;;;;;;;8.68;4.22;;;13.80;53.40;;;;;;5033034;28;20526;-71
2022/04/12 19:06:09;;;;;;;8.60;4.60;;;13.60;54.90;;;;;;5034506;28;20252;-71
2022/04/12 19:08:34;;;;;;;6.45;4.00;;;13.40;56.10;;;;;;5034485;28;20225;-71
2022/04/12 19:11:00;;;;;;;6.30;3.33;;;13.20;56.70;;;;;;5033773;28;20650;-71
2022/04/12 19:13:26;;;;;;;7.10;3.28;;;13.00;56.90;;;;;;5033640;28;20229;-71
2022/04/12 19:15:53;;;;;;;4.25;3.00;;;12.90;57.20;;;;;;5033855;28;20574;-71
2022/04/12 19:18:19;;;;;;;5.40;3.13;;;12.70;57.50;;;;;;5034259;28;20630;-72
2022/04/12 19:20:44;;;;;;;7.63;2.60;;;12.70;59.00;;;;;;5034293;28;20253;-72
2022/04/12 19:23:15;;;;;;;4.05;2.33;;;12.60;59.60;;;;;;5034602;28;20182;-72
2022/04/12 19:25:42;;;;;;;3.92;1.70;;;12.50;58.30;;;;;;5034883;28;20273;-72
2022/04/12 19:28:07;;;;;;;2.28;2.08;;;12.50;57.90;;;;;;5033313;28;20610;-71
2022/04/12 19:30:33;;;;;;;3.00;1.85;;;12.40;58.40;;;;;;5034429;28;20178;-72
2022/04/12 19:32:59;;;;;;;3.63;1.90;;;12.40;58.80;;;;;;5034818;28;20223;-72
2022/04/12 19:35:24;;;;;;;2.05;1.83;;;12.30;59.10;;;;;;5033553;28;20249;-70
2022/04/12 19:37:50;;;;;;;3.08;1.88;;;12.30;59.30;;;;;;5033881;28;20510;-71
2022/04/12 19:40:17;;;;;;;1.85;1.75;;;12.30;59.40;;;;;;5033658;28;20178;-71
2022/04/12 19:42:44;;;;;;;1.75;1.65;;;12.30;60.10;;;;;;5033848;28;20199;-73
2022/04/12 19:45:10;;;;;;;3.10;2.22;;;12.20;61.00;;;;;;5034194;28;20274;-71
2022/04/12 19:47:36;;;;;;;5.20;2.10;;;12.10;61.50;;;;;;5033867;28;20252;-70
2022/04/12 19:50:03;;;;;;;4.40;2.40;;;12.10;61.90;;;;;;5033035;28;20178;-70
2022/04/12 19:52:28;;;;;;;3.58;2.35;;;12.20;62.40;;;;;;5032908;28;20630;-70
2022/04/12 19:54:54;;;;;;;5.30;2.53;;;12.10;62.90;;;;;;5033042;28;20225;-71
2022/04/12 19:57:20;;;;;;;5.10;3.00;;;12.10;63.10;;;;;;5033509;28;20237;-71
2022/04/12 19:59:46;;;;;;;4.45;3.28;;;12.00;65.30;;;;;;5033679;28;20237;-71
2022/04/12 20:02:18;;;;;;;2.83;2.63;;;11.90;65.40;;;;;;5032672;28;20207;-70
2022/04/12 20:04:47;;;;;;;5.60;2.70;;;11.80;65.40;;;;;;5034358;28;20595;-72
2022/04/12 20:07:15;;;;;;;6.00;2.42;;;11.80;64.60;;;;;;5032696;28;20266;-70
2022/04/12 20:09:46;;;;;;;8.02;2.45;;;11.80;63.00;;;;;;5033392;28;20210;-70
2022/04/12 20:12:12;;;;;;;7.43;2.40;;;11.80;64.10;;;;;;5034562;28;20194;-70
2022/04/12 20:14:37;;;;;;;4.32;3.10;;;11.60;64.40;;;;;;5032395;28;20211;-70
2022/04/12 20:17:05;;;;;;;5.32;2.80;;;11.70;63.90;;;;;;5032337;28;20650;-72
2022/04/12 20:19:31;;;;;;;5.20;2.88;;;11.60;64.90;;;;;;5032765;28;20262;-70
2022/04/12 20:21:56;;;;;;;4.32;2.40;;;11.60;65.90;;;;;;5032788;28;20289;-70
2022/04/12 20:24:22;;;;;;;5.18;2.30;;;11.60;67.00;;;;;;5032655;28;20183;-71
2022/04/12 20:26:47;;;;;;;3.00;2.40;;;11.50;67.10;;;;;;5033535;28;20167;-71
2022/04/12 20:29:13;;;;;;;3.53;2.35;;;11.40;67.00;;;;;;5033405;28;20224;-71
2022/04/12 20:31:41;;;;;;;2.75;1.98;;;11.30;67.10;;;;;;5032188;28;20201;-71
2022/04/12 20:34:06;;;;;;;2.20;1.75;;;11.30;67.10;;;;;;5033805;28;20155;-70
2022/04/12 20:36:32;;;;;;;7.35;2.33;;;11.30;66.70;;;;;;5032510;28;20213;-70
2022/04/12 20:38:57;;;;;;;1.98;1.88;;;11.20;66.50;;;;;;5032064;28;20680;-70
2022/04/12 20:41:23;;;;;;;2.20;2.00;;;11.10;66.40;;;;;;5032038;28;20198;-71
2022/04/12 20:43:48;;;;;;;1.90;1.80;;;11.10;66.70;;;;;;5032565;28;20190;-71
2022/04/12 20:46:14;;;;;;;8.18;5.82;;;11.00;67.50;;;;;;5032901;28;20202;-71
2022/04/12 20:48:40;;;;;;;9.18;6.40;;;10.90;68.70;;;;;;5032084;28;20265;-71
2022/04/12 20:51:06;;;;;;;9.32;5.78;;;10.90;69.30;;;;;;5033876;28;20183;-71
2022/04/12 20:53:32;;;;;;;6.57;3.58;;;10.80;69.40;;;;;;5032063;28;20190;-72
2022/04/12 20:55:58;;;;;;;6.18;2.88;;;10.70;69.30;;;;;;5031988;28;20199;-70
2022/04/12 20:58:23;;;;;;;4.78;2.80;;;10.70;69.00;;;;;;5031966;28;20183;-70
2022/04/12 21:00:49;;;;;;;5.82;2.70;;;10.60;69.10;;;;;;5033261;28;20734;-70
2022/04/12 21:03:22;;;;;;;2.95;2.53;;;10.50;69.60;;;;;;5033480;28;20190;-71
2022/04/12 21:06:26;;;;;;;2.65;2.45;;;10.50;69.50;;;;;;5033153;28;20685;-71
2022/04/12 21:08:51;;;;;;;3.63;2.10;;;10.40;69.90;;;;;;5031976;28;20178;-72
2022/04/12 21:11:17;;;;;;;3.17;2.40;;;10.40;70.30;;;;;;5032043;28;20187;-72
2022/04/12 21:13:43;;;;;;;2.78;2.28;;;10.40;70.50;;;;;;5033006;28;20185;-72
2022/04/12 21:16:35;;;;;;;2.35;2.15;;;10.40;70.60;;;;;;5033118;28;20203;-72
2022/04/12 21:19:01;;;;;;;4.57;2.47;;;10.30;70.50;;;;;;5033073;28;20167;-72
2022/04/12 21:22:03;;;;;;;2.75;2.22;;;10.30;69.50;;;;;;5031851;28;20217;-71
2022/04/12 21:24:29;;;;;;;3.65;2.25;;;10.30;70.00;;;;;;5033208;28;20648;-72
2022/04/12 21:26:55;;;;;;;3.42;2.20;;;10.20;70.20;;;;;;5032192;28;20221;-72
2022/04/12 21:29:21;;;;;;;3.38;2.38;;;10.20;70.10;;;;;;5035577;28;20183;-72
2022/04/12 21:31:47;;;;;;;4.47;2.63;;;10.20;70.80;;;;;;5035701;28;20186;-72
2022/04/12 21:34:13;;;;;;;3.40;2.63;;;10.00;71.60;;;;;;5035757;28;20233;-70
2022/04/12 21:36:40;;;;;;;3.45;2.50;;;10.00;71.80;;;;;;5035308;28;20203;-71
2022/04/12 21:39:06;;;;;;;2.92;2.65;;;10.00;72.10;;;;;;5035578;28;20182;-71
2022/04/12 21:41:34;;;;;;;2.88;2.60;;;10.00;72.50;;;;;;5036739;28;20202;-72
2022/04/12 21:44:01;;;;;;;4.63;2.90;;;10.00;72.90;;;;;;5036563;28;20218;-72
2022/04/12 21:46:26;;;;;;;4.60;2.65;;;9.90;72.70;;;;;;5035430;28;20195;-72
2022/04/12 21:48:52;;;;;;;2.60;2.40;;;9.90;72.50;;;;;;5035232;28;20194;-72
2022/04/12 21:51:18;;;;;;;2.88;2.47;;;9.80;72.40;;;;;;5035277;28;20321;-72
2022/04/12 21:53:46;;;;;;;2.72;2.35;;;9.80;72.60;;;;;;5035113;28;20171;-72
2022/04/12 21:56:12;;;;;;;4.50;3.00;;;9.70;72.80;;;;;;5035062;28;20206;-71
2022/04/12 21:58:37;;;;;;;5.72;2.45;;;9.70;73.30;;;;;;5035236;28;20638;-71
2022/04/12 22:01:05;;;;;;;4.45;2.60;;;9.70;73.60;;;;;;5035226;28;20207;-72
2022/04/12 22:03:31;;;;;;;3.60;2.30;;;9.70;74.00;;;;;;5036458;28;20186;-72
2022/04/12 22:05:57;;;;;;;5.53;2.42;;;9.60;74.30;;;;;;5036072;28;20281;-72
2022/04/12 22:08:22;;;;;;;4.07;2.67;;;9.60;74.70;;;;;;5035147;28;20175;-71
2022/04/12 22:10:48;;;;;;;5.35;3.30;;;9.60;74.70;;;;;;5034814;28;20244;-71
2022/04/12 22:13:14;;;;;;;6.47;3.20;;;9.60;75.20;;;;;;5035248;28;20191;-72
2022/04/12 22:15:41;;;;;;;5.10;3.33;;;9.60;75.40;;;;;;5036577;28;20190;-72
2022/04/12 22:18:07;;;;;;;4.88;3.28;;;9.60;75.70;;;;;;5035755;28;20175;-72
2022/04/12 22:20:33;;;;;;;24.58;9.00;;;9.60;74.90;;;;;;5035057;28;20215;-72
2022/04/12 22:22:58;;;;;;;14.55;6.45;;;9.60;75.00;;;;;;5035002;28;20225;-72
2022/04/12 22:25:26;;;;;;;12.48;4.63;;;9.40;75.90;;;;;;5035685;28;20195;-70
2022/04/12 22:27:51;;;;;;;7.20;3.88;;;9.20;76.90;;;;;;5034674;28;20175;-71
2022/04/12 22:30:17;;;;;;;4.45;3.33;;;9.20;77.60;;;;;;5035320;28;20194;-71
2022/04/12 22:32:43;;;;;;;4.80;2.83;;;9.00;79.00;;;;;;5034912;28;20182;-71
2022/04/12 22:35:09;;;;;;;8.23;3.53;;;9.10;79.40;;;;;;5035884;28;20218;-71
2022/04/12 22:37:44;;;;;;;12.13;4.95;;;9.00;79.50;;;;;;5035261;28;20265;-70
2022/04/12 22:40:12;;;;;;;11.32;5.50;;;9.10;79.90;;;;;;5034346;28;20183;-70
2022/04/12 22:42:38;;;;;;;9.65;4.80;;;9.00;79.70;;;;;;5034282;28;20692;-70
2022/04/12 22:45:06;;;;;;;11.60;5.70;;;9.00;80.00;;;;;;5034108;28;20202;-72
2022/04/12 22:47:32;;;;;;;12.18;6.00;;;9.00;80.20;;;;;;5035572;28;20179;-72
2022/04/12 22:49:57;;;;;;;11.43;5.05;;;9.00;80.20;;;;;;5034064;28;20535;-70
2022/04/12 22:52:23;;;;;;;15.45;5.40;;;8.90;80.20;;;;;;5034358;28;20634;-72
2022/04/12 22:54:48;;;;;;;18.45;5.45;;;8.90;80.40;;;;;;5035362;28;20194;-72
2022/04/12 22:57:14;;;;;;;14.70;5.80;;;9.00;81.00;;;;;;5033905;28;20187;-72
2022/04/12 22:59:39;;;;;;;18.45;5.47;;;9.00;80.50;;;;;;5033882;28;20277;-72
2022/04/12 23:02:05;;;;;;;15.73;4.93;;;9.00;80.70;;;;;;5035232;28;20199;-72
2022/04/12 23:04:30;;;;;;;9.50;3.72;;;8.90;80.70;;;;;;5034889;28;20209;-72
2022/04/12 23:06:56;;;;;;;7.22;3.55;;;8.70;81.60;;;;;;5034347;28;20209;-72
2022/04/12 23:09:21;;;;;;;6.10;3.55;;;8.50;83.40;;;;;;5033990;28;20210;-72
2022/04/12 23:11:47;;;;;;;6.68;3.63;;;8.40;84.60;;;;;;5033735;28;20214;-72
2022/04/12 23:14:13;;;;;;;6.63;3.72;;;8.20;85.60;;;;;;5034075;28;20183;-72
2022/04/12 23:16:40;;;;;;;6.25;3.65;;;8.20;86.30;;;;;;5035032;28;20191;-70
2022/04/12 23:19:06;;;;;;;14.07;6.40;;;8.20;86.80;;;;;;5034328;28;20171;-70
2022/04/12 23:21:32;;;;;;;15.45;6.68;;;8.20;87.60;;;;;;5034588;28;20221;-70
2022/04/12 23:23:58;;;;;;;13.35;5.43;;;8.20;87.60;;;;;;5033397;28;20179;-70
2022/04/12 23:26:24;;;;;;;13.95;5.70;;;8.20;87.50;;;;;;5033370;28;20325;-70
2022/04/12 23:28:49;;;;;;;21.67;10.00;;;8.20;87.80;;;;;;5033616;28;20179;-71
2022/04/12 23:31:15;;;;;;;19.70;8.63;;;8.20;87.80;;;;;;5034730;28;20183;-71
2022/04/12 23:33:40;;;;;;;18.83;7.57;;;8.10;88.30;;;;;;5034399;28;20175;-72
2022/04/12 23:36:06;;;;;;;7.75;5.10;;;8.10;89.30;;;;;;5033090;28;20270;-71
2022/04/12 23:38:32;;;;;;;9.30;3.97;;;8.00;90.20;;;;;;5033161;28;20193;-71
2022/04/12 23:40:57;;;;;;;4.70;3.38;;;7.90;90.20;;;;;;5033814;28;20199;-71
2022/04/12 23:43:25;;;;;;;9.80;4.10;;;7.90;90.60;;;;;;5034143;28;20191;-70
2022/04/12 23:45:51;;;;;;;11.75;4.03;;;7.90;90.10;;;;;;5033108;28;20194;-71
2022/04/12 23:48:18;;;;;;;4.03;3.10;;;7.90;90.20;;;;;;5033089;28;20209;-71
2022/04/12 23:50:44;;;;;;;5.53;3.70;;;7.90;90.40;;;;;;5032571;28;20190;-71
2022/04/12 23:53:10;;;;;;;9.07;3.70;;;7.80;90.60;;;;;;5034445;28;20179;-71
2022/04/12 23:55:36;;;;;;;8.50;4.60;;;7.80;90.60;;;;;;5032778;28;20289;-71
2022/04/12 23:58:02;;;;;;;16.40;7.18;;;7.90;90.60;;;;;;5033180;28;20269;-72
